sensor_id;sensor_type;location;lat;lon;timestamp;temperature;humidity
22908;DHT22;11620;50.050;8.690;2023-05-07T00:00:09;15.80;99.90
22908;DHT22;11620;50.050;8.690;2023-05-07T00:02:57;15.80;99.90
22908;DHT22;11620;50.050;8.690;2023-05-07T00:05:43;15.70;99.90
22908;DHT22;11620;50.050;8.690;2023-05-07T00:08:29;15.70;99.90
22908;DHT22;11620;50.050;8.690;2023-05-07T00:11:16;15.70;99.90
22908;DHT22;11620;50.050;8.690;2023-05-07T00:14:02;15.70;99.90
22908;DHT22;11620;50.050;8.690;2023-05-07T00:16:48;15.70;99.90
22908;DHT22;11620;50.050;8.690;2023-05-07T00:19:35;15.70;99.90
22908;DHT22;11620;50.050;8.690;2023-05-07T00:22:21;15.60;99.90
22908;DHT22;11620;50.050;8.690;2023-05-07T00:25:08;15.60;99.90
22908;DHT22;11620;50.050;8.690;2023-05-07T00:27:54;15.60;99.90
22908;DHT22;11620;50.050;8.690;2023-05-07T00:30:40;15.50;99.90
22908;DHT22;11620;50.050;8.690;2023-05-07T00:33:27;15.60;99.90
22908;DHT22;11620;50.050;8.690;2023-05-07T00:36:13;15.60;99.90
22908;DHT22;11620;50.050;8.690;2023-05-07T00:39:00;15.60;99.90
22908;DHT22;11620;50.050;8.690;2023-05-07T00:41:49;15.60;99.90
22908;DHT22;11620;50.050;8.690;2023-05-07T00:44:35;15.60;99.90
22908;DHT22;11620;50.050;8.690;2023-05-07T00:47:22;15.60;99.90
22908;DHT22;11620;50.050;8.690;2023-05-07T00:50:09;15.60;99.90
22908;DHT22;11620;50.050;8.690;2023-05-07T00:52:57;15.60;99.90
22908;DHT22;11620;50.050;8.690;2023-05-07T00:55:43;15.50;99.90
22908;DHT22;11620;50.050;8.690;2023-05-07T00:58:29;15.50;99.90
22908;DHT22;11620;50.050;8.690;2023-05-07T01:01:16;15.50;99.90
22908;DHT22;11620;50.050;8.690;2023-05-07T01:04:02;15.40;99.90
22908;DHT22;11620;50.050;8.690;2023-05-07T01:06:49;15.40;99.90
22908;DHT22;11620;50.050;8.690;2023-05-07T01:09:36;15.40;99.90
22908;DHT22;11620;50.050;8.690;2023-05-07T01:12:24;15.40;99.90
22908;DHT22;11620;50.050;8.690;2023-05-07T01:15:12;15.40;99.90
22908;DHT22;11620;50.050;8.690;2023-05-07T01:17:59;15.40;99.90
22908;DHT22;11620;50.050;8.690;2023-05-07T01:20:45;15.40;99.90
22908;DHT22;11620;50.050;8.690;2023-05-07T01:23:33;15.30;99.90
22908;DHT22;11620;50.050;8.690;2023-05-07T01:26:22;15.30;99.90
22908;DHT22;11620;50.050;8.690;2023-05-07T01:29:09;15.30;99.90
22908;DHT22;11620;50.050;8.690;2023-05-07T01:32:00;15.30;99.90
22908;DHT22;11620;50.050;8.690;2023-05-07T01:34:48;15.30;99.90
22908;DHT22;11620;50.050;8.690;2023-05-07T01:37:35;15.30;99.90
22908;DHT22;11620;50.050;8.690;2023-05-07T01:40:22;15.30;99.90
22908;DHT22;11620;50.050;8.690;2023-05-07T01:43:09;15.30;99.90
22908;DHT22;11620;50.050;8.690;2023-05-07T01:45:57;15.30;99.90
22908;DHT22;11620;50.050;8.690;2023-05-07T01:48:45;15.20;99.90
22908;DHT22;11620;50.050;8.690;2023-05-07T01:51:32;15.20;99.90
22908;DHT22;11620;50.050;8.690;2023-05-07T01:54:19;15.20;99.90
22908;DHT22;11620;50.050;8.690;2023-05-07T01:57:06;15.20;99.90
22908;DHT22;11620;50.050;8.690;2023-05-07T01:59:52;15.20;99.90
22908;DHT22;11620;50.050;8.690;2023-05-07T02:02:39;15.10;99.90
22908;DHT22;11620;50.050;8.690;2023-05-07T02:05:25;15.10;99.90
22908;DHT22;11620;50.050;8.690;2023-05-07T02:08:11;15.00;99.90
22908;DHT22;11620;50.050;8.690;2023-05-07T02:10:58;15.00;99.90
22908;DHT22;11620;50.050;8.690;2023-05-07T02:13:44;15.00;99.90
22908;DHT22;11620;50.050;8.690;2023-05-07T02:16:31;15.00;99.90
22908;DHT22;11620;50.050;8.690;2023-05-07T02:19:17;15.00;99.90
22908;DHT22;11620;50.050;8.690;2023-05-07T02:22:04;15.00;99.90
22908;DHT22;11620;50.050;8.690;2023-05-07T02:24:50;14.90;99.90
22908;DHT22;11620;50.050;8.690;2023-05-07T02:27:36;14.90;99.90
22908;DHT22;11620;50.050;8.690;2023-05-07T02:30:24;14.90;99.90
22908;DHT22;11620;50.050;8.690;2023-05-07T02:33:11;14.90;99.90
22908;DHT22;11620;50.050;8.690;2023-05-07T02:36:09;14.90;99.90
22908;DHT22;11620;50.050;8.690;2023-05-07T02:38:56;14.90;99.90
22908;DHT22;11620;50.050;8.690;2023-05-07T02:41:42;14.90;99.90
22908;DHT22;11620;50.050;8.690;2023-05-07T02:44:28;14.80;99.90
22908;DHT22;11620;50.050;8.690;2023-05-07T02:47:17;14.80;99.90
22908;DHT22;11620;50.050;8.690;2023-05-07T02:50:04;14.80;99.90
22908;DHT22;11620;50.050;8.690;2023-05-07T02:52:50;14.80;99.90
22908;DHT22;11620;50.050;8.690;2023-05-07T02:55:37;14.80;99.90
22908;DHT22;11620;50.050;8.690;2023-05-07T02:58:23;14.80;99.90
22908;DHT22;11620;50.050;8.690;2023-05-07T03:01:10;14.80;99.90
22908;DHT22;11620;50.050;8.690;2023-05-07T03:03:56;14.80;99.90
22908;DHT22;11620;50.050;8.690;2023-05-07T03:06:42;14.80;99.90
22908;DHT22;11620;50.050;8.690;2023-05-07T03:09:28;14.80;99.90
22908;DHT22;11620;50.050;8.690;2023-05-07T03:12:15;14.70;99.90
22908;DHT22;11620;50.050;8.690;2023-05-07T03:15:01;14.80;99.90
22908;DHT22;11620;50.050;8.690;2023-05-07T03:17:48;14.70;99.90
22908;DHT22;11620;50.050;8.690;2023-05-07T03:20:34;14.70;99.90
22908;DHT22;11620;50.050;8.690;2023-05-07T03:23:22;14.80;99.90
22908;DHT22;11620;50.050;8.690;2023-05-07T03:26:08;14.70;99.90
22908;DHT22;11620;50.050;8.690;2023-05-07T03:28:54;14.70;99.90
22908;DHT22;11620;50.050;8.690;2023-05-07T03:31:41;14.70;99.90
22908;DHT22;11620;50.050;8.690;2023-05-07T03:34:27;14.70;99.90
22908;DHT22;11620;50.050;8.690;2023-05-07T03:37:14;14.70;99.90
22908;DHT22;11620;50.050;8.690;2023-05-07T03:40:00;14.70;99.90
22908;DHT22;11620;50.050;8.690;2023-05-07T03:42:46;14.70;99.90
22908;DHT22;11620;50.050;8.690;2023-05-07T03:45:33;14.70;99.90
22908;DHT22;11620;50.050;8.690;2023-05-07T03:48:19;14.70;99.90
22908;DHT22;11620;50.050;8.690;2023-05-07T03:51:05;14.60;99.90
22908;DHT22;11620;50.050;8.690;2023-05-07T03:53:52;14.50;99.90
22908;DHT22;11620;50.050;8.690;2023-05-07T03:56:39;14.50;99.90
22908;DHT22;11620;50.050;8.690;2023-05-07T03:59:25;14.50;99.90
22908;DHT22;11620;50.050;8.690;2023-05-07T04:02:11;14.50;99.90
22908;DHT22;11620;50.050;8.690;2023-05-07T04:04:58;14.50;99.90
22908;DHT22;11620;50.050;8.690;2023-05-07T04:07:44;14.50;99.90
22908;DHT22;11620;50.050;8.690;2023-05-07T04:10:30;14.50;99.90
22908;DHT22;11620;50.050;8.690;2023-05-07T04:13:17;14.40;99.90
22908;DHT22;11620;50.050;8.690;2023-05-07T04:16:04;14.40;99.90
22908;DHT22;11620;50.050;8.690;2023-05-07T04:18:51;14.40;99.90
22908;DHT22;11620;50.050;8.690;2023-05-07T04:21:37;14.40;99.90
22908;DHT22;11620;50.050;8.690;2023-05-07T04:24:23;14.40;99.90
22908;DHT22;11620;50.050;8.690;2023-05-07T04:27:10;14.40;99.90
22908;DHT22;11620;50.050;8.690;2023-05-07T04:29:56;14.40;99.90
22908;DHT22;11620;50.050;8.690;2023-05-07T04:32:42;14.50;99.90
22908;DHT22;11620;50.050;8.690;2023-05-07T04:35:30;14.50;99.90
22908;DHT22;11620;50.050;8.690;2023-05-07T04:38:17;14.50;99.90
22908;DHT22;11620;50.050;8.690;2023-05-07T04:41:05;14.50;99.90
22908;DHT22;11620;50.050;8.690;2023-05-07T04:43:52;14.50;99.90
22908;DHT22;11620;50.050;8.690;2023-05-07T04:46:38;14.60;99.90
22908;DHT22;11620;50.050;8.690;2023-05-07T04:49:24;14.50;99.90
22908;DHT22;11620;50.050;8.690;2023-05-07T04:52:10;14.50;99.90
22908;DHT22;11620;50.050;8.690;2023-05-07T04:54:59;14.50;99.90
22908;DHT22;11620;50.050;8.690;2023-05-07T04:57:45;14.50;99.90
22908;DHT22;11620;50.050;8.690;2023-05-07T05:00:32;14.40;99.90
22908;DHT22;11620;50.050;8.690;2023-05-07T05:03:19;14.40;99.90
22908;DHT22;11620;50.050;8.690;2023-05-07T05:06:05;14.50;99.90
22908;DHT22;11620;50.050;8.690;2023-05-07T05:08:52;14.40;99.90
22908;DHT22;11620;50.050;8.690;2023-05-07T05:11:38;14.40;99.90
22908;DHT22;11620;50.050;8.690;2023-05-07T05:14:25;14.40;99.90
22908;DHT22;11620;50.050;8.690;2023-05-07T05:17:11;14.40;99.90
22908;DHT22;11620;50.050;8.690;2023-05-07T05:19:57;14.50;99.90
22908;DHT22;11620;50.050;8.690;2023-05-07T05:22:44;14.40;99.90
22908;DHT22;11620;50.050;8.690;2023-05-07T05:25:30;14.50;99.90
22908;DHT22;11620;50.050;8.690;2023-05-07T05:28:17;14.50;99.90
22908;DHT22;11620;50.050;8.690;2023-05-07T05:31:04;14.60;99.90
22908;DHT22;11620;50.050;8.690;2023-05-07T05:33:52;14.60;99.90
22908;DHT22;11620;50.050;8.690;2023-05-07T05:36:38;14.70;99.90
22908;DHT22;11620;50.050;8.690;2023-05-07T05:39:24;14.70;99.90
22908;DHT22;11620;50.050;8.690;2023-05-07T05:42:11;14.70;99.90
22908;DHT22;11620;50.050;8.690;2023-05-07T05:44:57;14.80;99.90
22908;DHT22;11620;50.050;8.690;2023-05-07T05:47:43;14.80;99.90
22908;DHT22;11620;50.050;8.690;2023-05-07T05:50:29;14.80;99.90
22908;DHT22;11620;50.050;8.690;2023-05-07T05:53:16;14.90;99.90
22908;DHT22;11620;50.050;8.690;2023-05-07T05:56:02;14.90;99.90
22908;DHT22;11620;50.050;8.690;2023-05-07T05:58:49;15.00;99.90
22908;DHT22;11620;50.050;8.690;2023-05-07T06:01:35;15.00;99.90
22908;DHT22;11620;50.050;8.690;2023-05-07T06:04:21;15.00;99.90
22908;DHT22;11620;50.050;8.690;2023-05-07T06:07:08;15.00;99.90
22908;DHT22;11620;50.050;8.690;2023-05-07T06:09:54;15.00;99.90
22908;DHT22;11620;50.050;8.690;2023-05-07T06:12:41;15.10;99.90
22908;DHT22;11620;50.050;8.690;2023-05-07T06:15:27;15.20;99.90
22908;DHT22;11620;50.050;8.690;2023-05-07T06:18:14;15.20;99.90
22908;DHT22;11620;50.050;8.690;2023-05-07T06:21:00;15.30;99.90
22908;DHT22;11620;50.050;8.690;2023-05-07T06:23:46;15.40;99.90
22908;DHT22;11620;50.050;8.690;2023-05-07T06:26:32;15.40;99.90
22908;DHT22;11620;50.050;8.690;2023-05-07T06:29:19;15.60;99.90
22908;DHT22;11620;50.050;8.690;2023-05-07T06:32:09;15.70;99.90
22908;DHT22;11620;50.050;8.690;2023-05-07T06:34:56;15.80;99.90
22908;DHT22;11620;50.050;8.690;2023-05-07T06:37:42;16.00;99.90
22908;DHT22;11620;50.050;8.690;2023-05-07T06:40:28;16.30;99.90
22908;DHT22;11620;50.050;8.690;2023-05-07T06:43:15;16.40;99.90
22908;DHT22;11620;50.050;8.690;2023-05-07T06:46:01;16.60;99.90
22908;DHT22;11620;50.050;8.690;2023-05-07T06:48:47;16.50;99.90
22908;DHT22;11620;50.050;8.690;2023-05-07T06:51:34;16.50;99.90
22908;DHT22;11620;50.050;8.690;2023-05-07T06:54:21;16.50;99.90
22908;DHT22;11620;50.050;8.690;2023-05-07T06:57:07;16.40;99.90
22908;DHT22;11620;50.050;8.690;2023-05-07T06:59:53;16.50;99.90
22908;DHT22;11620;50.050;8.690;2023-05-07T07:02:39;16.50;99.90
22908;DHT22;11620;50.050;8.690;2023-05-07T07:05:26;16.60;99.90
22908;DHT22;11620;50.050;8.690;2023-05-07T07:08:12;16.50;99.90
22908;DHT22;11620;50.050;8.690;2023-05-07T07:10:58;16.50;99.90
22908;DHT22;11620;50.050;8.690;2023-05-07T07:13:45;16.60;99.90
22908;DHT22;11620;50.050;8.690;2023-05-07T07:16:31;16.60;99.90
22908;DHT22;11620;50.050;8.690;2023-05-07T07:19:17;16.70;99.90
22908;DHT22;11620;50.050;8.690;2023-05-07T07:22:04;16.70;99.90
22908;DHT22;11620;50.050;8.690;2023-05-07T07:24:50;16.80;99.90
22908;DHT22;11620;50.050;8.690;2023-05-07T07:27:37;16.70;99.90
22908;DHT22;11620;50.050;8.690;2023-05-07T07:30:23;16.80;99.90
22908;DHT22;11620;50.050;8.690;2023-05-07T07:33:10;16.90;99.90
22908;DHT22;11620;50.050;8.690;2023-05-07T07:35:56;17.00;99.90
22908;DHT22;11620;50.050;8.690;2023-05-07T07:38:42;17.10;99.90
22908;DHT22;11620;50.050;8.690;2023-05-07T07:41:29;17.20;99.90
22908;DHT22;11620;50.050;8.690;2023-05-07T07:44:15;17.30;99.90
22908;DHT22;11620;50.050;8.690;2023-05-07T07:47:01;17.40;99.90
22908;DHT22;11620;50.050;8.690;2023-05-07T07:49:47;17.40;99.90
22908;DHT22;11620;50.050;8.690;2023-05-07T07:52:34;17.40;99.90
22908;DHT22;11620;50.050;8.690;2023-05-07T07:55:22;17.40;99.90
22908;DHT22;11620;50.050;8.690;2023-05-07T07:58:09;17.40;99.90
22908;DHT22;11620;50.050;8.690;2023-05-07T08:00:55;17.30;99.90
22908;DHT22;11620;50.050;8.690;2023-05-07T08:03:42;17.40;99.90
22908;DHT22;11620;50.050;8.690;2023-05-07T08:06:28;17.40;99.90
22908;DHT22;11620;50.050;8.690;2023-05-07T08:09:15;17.40;99.90
22908;DHT22;11620;50.050;8.690;2023-05-07T08:12:01;17.40;99.90
22908;DHT22;11620;50.050;8.690;2023-05-07T08:14:47;17.30;99.90
22908;DHT22;11620;50.050;8.690;2023-05-07T08:17:34;17.30;99.90
22908;DHT22;11620;50.050;8.690;2023-05-07T08:20:20;17.40;99.90
22908;DHT22;11620;50.050;8.690;2023-05-07T08:23:07;17.50;99.90
22908;DHT22;11620;50.050;8.690;2023-05-07T08:25:56;17.60;99.90
22908;DHT22;11620;50.050;8.690;2023-05-07T08:28:45;17.60;99.90
22908;DHT22;11620;50.050;8.690;2023-05-07T08:31:31;17.70;99.90
22908;DHT22;11620;50.050;8.690;2023-05-07T08:34:18;17.70;99.90
22908;DHT22;11620;50.050;8.690;2023-05-07T08:37:04;17.60;99.90
22908;DHT22;11620;50.050;8.690;2023-05-07T08:39:50;17.60;99.90
22908;DHT22;11620;50.050;8.690;2023-05-07T08:42:37;17.60;99.90
22908;DHT22;11620;50.050;8.690;2023-05-07T08:45:24;17.60;99.90
22908;DHT22;11620;50.050;8.690;2023-05-07T08:48:16;17.60;99.90
22908;DHT22;11620;50.050;8.690;2023-05-07T08:51:02;17.60;99.90
22908;DHT22;11620;50.050;8.690;2023-05-07T08:53:49;17.80;99.90
22908;DHT22;11620;50.050;8.690;2023-05-07T08:56:36;17.90;99.90
22908;DHT22;11620;50.050;8.690;2023-05-07T08:59:22;18.10;99.90
22908;DHT22;11620;50.050;8.690;2023-05-07T09:02:09;18.20;99.90
22908;DHT22;11620;50.050;8.690;2023-05-07T09:04:56;18.30;99.90
22908;DHT22;11620;50.050;8.690;2023-05-07T09:07:42;18.30;99.90
22908;DHT22;11620;50.050;8.690;2023-05-07T09:10:29;18.50;99.90
22908;DHT22;11620;50.050;8.690;2023-05-07T09:13:18;18.40;99.90
22908;DHT22;11620;50.050;8.690;2023-05-07T09:16:12;18.40;99.90
22908;DHT22;11620;50.050;8.690;2023-05-07T09:18:59;18.80;99.90
22908;DHT22;11620;50.050;8.690;2023-05-07T09:21:48;18.90;99.90
22908;DHT22;11620;50.050;8.690;2023-05-07T09:24:34;19.00;99.90
22908;DHT22;11620;50.050;8.690;2023-05-07T09:27:24;19.20;99.90
22908;DHT22;11620;50.050;8.690;2023-05-07T09:30:11;19.50;99.90
22908;DHT22;11620;50.050;8.690;2023-05-07T09:32:58;19.80;99.90
22908;DHT22;11620;50.050;8.690;2023-05-07T09:35:45;20.20;99.90
22908;DHT22;11620;50.050;8.690;2023-05-07T09:38:33;20.70;99.90
22908;DHT22;11620;50.050;8.690;2023-05-07T09:41:19;21.00;99.90
22908;DHT22;11620;50.050;8.690;2023-05-07T09:44:05;21.20;99.90
22908;DHT22;11620;50.050;8.690;2023-05-07T09:46:54;21.20;99.90
22908;DHT22;11620;50.050;8.690;2023-05-07T09:49:41;21.40;99.90
22908;DHT22;11620;50.050;8.690;2023-05-07T09:52:29;21.50;99.90
22908;DHT22;11620;50.050;8.690;2023-05-07T09:55:19;22.00;99.90
22908;DHT22;11620;50.050;8.690;2023-05-07T09:58:06;22.20;99.90
22908;DHT22;11620;50.050;8.690;2023-05-07T10:00:53;22.40;99.90
22908;DHT22;11620;50.050;8.690;2023-05-07T10:03:41;22.50;99.90
22908;DHT22;11620;50.050;8.690;2023-05-07T10:06:28;22.30;99.90
22908;DHT22;11620;50.050;8.690;2023-05-07T10:09:16;22.30;99.90
22908;DHT22;11620;50.050;8.690;2023-05-07T10:12:03;22.70;99.90
22908;DHT22;11620;50.050;8.690;2023-05-07T10:14:50;22.60;99.90
22908;DHT22;11620;50.050;8.690;2023-05-07T10:17:39;22.60;99.90
22908;DHT22;11620;50.050;8.690;2023-05-07T10:20:26;23.00;99.90
22908;DHT22;11620;50.050;8.690;2023-05-07T10:23:14;23.20;99.90
22908;DHT22;11620;50.050;8.690;2023-05-07T10:26:05;23.20;99.90
22908;DHT22;11620;50.050;8.690;2023-05-07T10:28:59;22.30;99.90
22908;DHT22;11620;50.050;8.690;2023-05-07T10:31:54;22.20;99.90
22908;DHT22;11620;50.050;8.690;2023-05-07T10:34:44;22.20;99.90
22908;DHT22;11620;50.050;8.690;2023-05-07T10:37:32;22.30;99.90
22908;DHT22;11620;50.050;8.690;2023-05-07T10:40:20;22.40;99.90
22908;DHT22;11620;50.050;8.690;2023-05-07T10:43:07;22.90;99.90
22908;DHT22;11620;50.050;8.690;2023-05-07T10:46:11;23.40;99.90
22908;DHT22;11620;50.050;8.690;2023-05-07T10:52:11;23.50;99.90
22908;DHT22;11620;50.050;8.690;2023-05-07T10:58:24;24.00;99.90
22908;DHT22;11620;50.050;8.690;2023-05-07T11:01:12;24.00;99.90
22908;DHT22;11620;50.050;8.690;2023-05-07T11:04:15;24.00;99.90
22908;DHT22;11620;50.050;8.690;2023-05-07T11:09:59;24.20;99.90
22908;DHT22;11620;50.050;8.690;2023-05-07T11:12:49;24.40;99.90
22908;DHT22;11620;50.050;8.690;2023-05-07T11:15:37;24.30;99.90
22908;DHT22;11620;50.050;8.690;2023-05-07T11:18:24;24.50;99.90
22908;DHT22;11620;50.050;8.690;2023-05-07T11:21:11;24.80;99.90
22908;DHT22;11620;50.050;8.690;2023-05-07T11:23:59;24.80;99.90
22908;DHT22;11620;50.050;8.690;2023-05-07T11:26:49;24.90;99.90
22908;DHT22;11620;50.050;8.690;2023-05-07T11:29:36;25.10;99.90
22908;DHT22;11620;50.050;8.690;2023-05-07T11:35:10;25.30;99.90
22908;DHT22;11620;50.050;8.690;2023-05-07T11:38:00;25.40;99.90
22908;DHT22;11620;50.050;8.690;2023-05-07T11:40:55;25.30;99.90
22908;DHT22;11620;50.050;8.690;2023-05-07T11:43:57;25.50;99.90
22908;DHT22;11620;50.050;8.690;2023-05-07T11:46:44;25.20;99.90
22908;DHT22;11620;50.050;8.690;2023-05-07T11:49:31;25.20;99.90
22908;DHT22;11620;50.050;8.690;2023-05-07T11:52:18;25.40;99.90
22908;DHT22;11620;50.050;8.690;2023-05-07T11:55:06;25.60;99.90
22908;DHT22;11620;50.050;8.690;2023-05-07T11:57:52;25.50;99.90
22908;DHT22;11620;50.050;8.690;2023-05-07T12:00:39;25.40;99.90
22908;DHT22;11620;50.050;8.690;2023-05-07T12:03:33;25.30;99.90
22908;DHT22;11620;50.050;8.690;2023-05-07T12:06:20;25.20;99.90
22908;DHT22;11620;50.050;8.690;2023-05-07T12:09:06;25.00;99.90
22908;DHT22;11620;50.050;8.690;2023-05-07T12:11:57;24.60;99.90
22908;DHT22;11620;50.050;8.690;2023-05-07T12:14:48;24.60;99.90
22908;DHT22;11620;50.050;8.690;2023-05-07T12:17:36;24.60;99.90
22908;DHT22;11620;50.050;8.690;2023-05-07T12:20:23;24.60;99.90
22908;DHT22;11620;50.050;8.690;2023-05-07T12:23:10;24.60;99.90
22908;DHT22;11620;50.050;8.690;2023-05-07T12:25:56;24.80;99.90
22908;DHT22;11620;50.050;8.690;2023-05-07T12:28:43;25.20;99.90
22908;DHT22;11620;50.050;8.690;2023-05-07T12:31:29;25.10;99.90
22908;DHT22;11620;50.050;8.690;2023-05-07T12:34:16;25.20;99.90
22908;DHT22;11620;50.050;8.690;2023-05-07T12:37:02;25.70;99.90
22908;DHT22;11620;50.050;8.690;2023-05-07T12:40:07;25.80;99.90
22908;DHT22;11620;50.050;8.690;2023-05-07T12:42:54;25.70;99.90
22908;DHT22;11620;50.050;8.690;2023-05-07T12:45:41;25.40;99.90
22908;DHT22;11620;50.050;8.690;2023-05-07T12:48:28;25.00;99.90
22908;DHT22;11620;50.050;8.690;2023-05-07T12:51:15;25.10;99.90
22908;DHT22;11620;50.050;8.690;2023-05-07T12:54:02;25.10;99.90
22908;DHT22;11620;50.050;8.690;2023-05-07T12:56:48;25.00;99.90
22908;DHT22;11620;50.050;8.690;2023-05-07T12:59:40;25.10;99.90
22908;DHT22;11620;50.050;8.690;2023-05-07T13:02:33;25.20;99.90
22908;DHT22;11620;50.050;8.690;2023-05-07T13:05:20;25.60;99.90
22908;DHT22;11620;50.050;8.690;2023-05-07T13:08:07;25.20;99.90
22908;DHT22;11620;50.050;8.690;2023-05-07T13:10:57;24.70;99.90
22908;DHT22;11620;50.050;8.690;2023-05-07T13:13:43;24.70;99.90
22908;DHT22;11620;50.050;8.690;2023-05-07T13:16:29;24.90;99.90
22908;DHT22;11620;50.050;8.690;2023-05-07T13:19:16;25.10;99.90
22908;DHT22;11620;50.050;8.690;2023-05-07T13:22:03;25.10;99.90
22908;DHT22;11620;50.050;8.690;2023-05-07T13:24:50;25.20;99.90
22908;DHT22;11620;50.050;8.690;2023-05-07T13:27:36;25.30;99.90
22908;DHT22;11620;50.050;8.690;2023-05-07T13:30:23;25.50;99.90
22908;DHT22;11620;50.050;8.690;2023-05-07T13:33:09;25.60;99.90
22908;DHT22;11620;50.050;8.690;2023-05-07T13:35:55;25.20;99.90
22908;DHT22;11620;50.050;8.690;2023-05-07T13:38:43;25.20;99.90
22908;DHT22;11620;50.050;8.690;2023-05-07T13:41:29;25.30;99.90
22908;DHT22;11620;50.050;8.690;2023-05-07T13:44:16;25.30;99.90
22908;DHT22;11620;50.050;8.690;2023-05-07T13:47:02;25.40;99.90
22908;DHT22;11620;50.050;8.690;2023-05-07T13:49:48;25.50;99.90
22908;DHT22;11620;50.050;8.690;2023-05-07T13:52:35;25.60;99.90
22908;DHT22;11620;50.050;8.690;2023-05-07T13:55:23;25.70;99.90
22908;DHT22;11620;50.050;8.690;2023-05-07T13:58:10;25.80;99.90
22908;DHT22;11620;50.050;8.690;2023-05-07T14:00:56;25.40;99.90
22908;DHT22;11620;50.050;8.690;2023-05-07T14:03:42;25.30;99.90
22908;DHT22;11620;50.050;8.690;2023-05-07T14:06:29;25.40;99.90
22908;DHT22;11620;50.050;8.690;2023-05-07T14:09:15;25.40;99.90
22908;DHT22;11620;50.050;8.690;2023-05-07T14:12:02;25.30;99.90
22908;DHT22;11620;50.050;8.690;2023-05-07T14:14:48;25.30;99.90
22908;DHT22;11620;50.050;8.690;2023-05-07T14:17:36;25.20;99.90
22908;DHT22;11620;50.050;8.690;2023-05-07T14:20:22;25.30;99.90
22908;DHT22;11620;50.050;8.690;2023-05-07T14:23:08;25.10;99.90
22908;DHT22;11620;50.050;8.690;2023-05-07T14:25:55;25.00;99.90
22908;DHT22;11620;50.050;8.690;2023-05-07T14:28:43;24.80;99.90
22908;DHT22;11620;50.050;8.690;2023-05-07T14:31:32;24.90;99.90
22908;DHT22;11620;50.050;8.690;2023-05-07T14:34:19;25.00;99.90
22908;DHT22;11620;50.050;8.690;2023-05-07T14:37:06;25.10;99.90
22908;DHT22;11620;50.050;8.690;2023-05-07T14:39:52;25.10;99.90
22908;DHT22;11620;50.050;8.690;2023-05-07T14:42:38;25.30;99.90
22908;DHT22;11620;50.050;8.690;2023-05-07T14:45:25;25.20;99.90
22908;DHT22;11620;50.050;8.690;2023-05-07T14:48:11;25.10;99.90
22908;DHT22;11620;50.050;8.690;2023-05-07T14:51:01;25.00;99.90
22908;DHT22;11620;50.050;8.690;2023-05-07T14:53:47;24.80;99.90
22908;DHT22;11620;50.050;8.690;2023-05-07T14:56:34;24.60;99.90
22908;DHT22;11620;50.050;8.690;2023-05-07T14:59:21;24.50;99.90
22908;DHT22;11620;50.050;8.690;2023-05-07T15:02:09;24.30;99.90
22908;DHT22;11620;50.050;8.690;2023-05-07T15:04:55;24.10;99.90
22908;DHT22;11620;50.050;8.690;2023-05-07T15:07:42;24.10;99.90
22908;DHT22;11620;50.050;8.690;2023-05-07T15:10:28;24.10;99.90
22908;DHT22;11620;50.050;8.690;2023-05-07T15:13:15;23.90;99.90
22908;DHT22;11620;50.050;8.690;2023-05-07T15:16:01;23.90;99.90
22908;DHT22;11620;50.050;8.690;2023-05-07T15:18:48;23.80;99.90
22908;DHT22;11620;50.050;8.690;2023-05-07T15:21:34;23.50;99.90
22908;DHT22;11620;50.050;8.690;2023-05-07T15:24:22;23.30;99.90
22908;DHT22;11620;50.050;8.690;2023-05-07T15:27:09;23.30;99.90
22908;DHT22;11620;50.050;8.690;2023-05-07T15:29:56;23.30;99.90
22908;DHT22;11620;50.050;8.690;2023-05-07T15:32:43;23.30;99.90
22908;DHT22;11620;50.050;8.690;2023-05-07T15:35:29;23.30;99.90
22908;DHT22;11620;50.050;8.690;2023-05-07T15:38:16;23.30;99.90
22908;DHT22;11620;50.050;8.690;2023-05-07T15:41:02;23.20;99.90
22908;DHT22;11620;50.050;8.690;2023-05-07T15:43:51;23.20;99.90
22908;DHT22;11620;50.050;8.690;2023-05-07T15:46:38;23.10;99.90
22908;DHT22;11620;50.050;8.690;2023-05-07T15:49:24;23.00;99.90
22908;DHT22;11620;50.050;8.690;2023-05-07T15:52:11;22.90;99.90
22908;DHT22;11620;50.050;8.690;2023-05-07T15:54:59;22.80;99.90
22908;DHT22;11620;50.050;8.690;2023-05-07T15:57:46;22.80;99.90
22908;DHT22;11620;50.050;8.690;2023-05-07T16:00:32;22.70;99.90
22908;DHT22;11620;50.050;8.690;2023-05-07T16:03:21;22.60;99.90
22908;DHT22;11620;50.050;8.690;2023-05-07T16:06:08;22.60;99.90
22908;DHT22;11620;50.050;8.690;2023-05-07T16:08:57;22.50;99.90
22908;DHT22;11620;50.050;8.690;2023-05-07T16:11:43;22.50;99.90
22908;DHT22;11620;50.050;8.690;2023-05-07T16:14:29;22.50;99.90
22908;DHT22;11620;50.050;8.690;2023-05-07T16:17:16;22.50;99.90
22908;DHT22;11620;50.050;8.690;2023-05-07T16:20:02;22.50;99.90
22908;DHT22;11620;50.050;8.690;2023-05-07T16:22:51;22.50;99.90
22908;DHT22;11620;50.050;8.690;2023-05-07T16:25:38;22.40;99.90
22908;DHT22;11620;50.050;8.690;2023-05-07T16:28:24;22.50;99.90
22908;DHT22;11620;50.050;8.690;2023-05-07T16:31:10;22.40;99.90
22908;DHT22;11620;50.050;8.690;2023-05-07T16:33:57;22.50;99.90
22908;DHT22;11620;50.050;8.690;2023-05-07T16:36:43;22.40;99.90
22908;DHT22;11620;50.050;8.690;2023-05-07T16:39:29;22.40;99.90
22908;DHT22;11620;50.050;8.690;2023-05-07T16:42:16;22.30;99.90
22908;DHT22;11620;50.050;8.690;2023-05-07T16:45:03;22.30;99.90
22908;DHT22;11620;50.050;8.690;2023-05-07T16:47:52;22.30;99.90
22908;DHT22;11620;50.050;8.690;2023-05-07T16:50:38;22.20;99.90
22908;DHT22;11620;50.050;8.690;2023-05-07T16:53:24;22.00;99.90
22908;DHT22;11620;50.050;8.690;2023-05-07T16:56:11;21.90;99.90
22908;DHT22;11620;50.050;8.690;2023-05-07T16:58:57;20.50;99.90
22908;DHT22;11620;50.050;8.690;2023-05-07T17:01:43;20.00;99.90
22908;DHT22;11620;50.050;8.690;2023-05-07T17:04:30;18.70;99.90
22908;DHT22;11620;50.050;8.690;2023-05-07T17:07:17;17.80;99.90
22908;DHT22;11620;50.050;8.690;2023-05-07T17:10:04;17.80;99.90
22908;DHT22;11620;50.050;8.690;2023-05-07T17:12:51;17.40;99.90
22908;DHT22;11620;50.050;8.690;2023-05-07T17:15:37;17.30;99.90
22908;DHT22;11620;50.050;8.690;2023-05-07T17:18:26;16.80;99.90
22908;DHT22;11620;50.050;8.690;2023-05-07T17:21:12;16.40;99.90
22908;DHT22;11620;50.050;8.690;2023-05-07T17:23:58;16.10;99.90
22908;DHT22;11620;50.050;8.690;2023-05-07T17:26:47;16.00;99.90
22908;DHT22;11620;50.050;8.690;2023-05-07T17:29:33;15.80;99.90
22908;DHT22;11620;50.050;8.690;2023-05-07T17:32:19;15.50;99.90
22908;DHT22;11620;50.050;8.690;2023-05-07T17:35:06;15.80;99.90
22908;DHT22;11620;50.050;8.690;2023-05-07T17:37:52;15.60;99.90
22908;DHT22;11620;50.050;8.690;2023-05-07T17:40:39;15.80;99.90
22908;DHT22;11620;50.050;8.690;2023-05-07T17:43:25;15.70;99.90
22908;DHT22;11620;50.050;8.690;2023-05-07T17:46:12;15.90;99.90